createdAt,value
2023-01-20T00:02:18.861Z,1.49
2023-01-20T00:04:51.786Z,1.64
2023-01-20T00:07:25.018Z,1.59
2023-01-20T00:09:57.861Z,1.51
2023-01-20T00:12:31.795Z,1.21
2023-01-20T00:15:07.120Z,1.40
2023-01-20T00:17:40.033Z,1.38
2023-01-20T00:20:13.681Z,1.03
2023-01-20T00:22:46.532Z,1.33
2023-01-20T00:25:19.268Z,1.22
2023-01-20T00:27:53.248Z,1.39
2023-01-20T00:30:27.606Z,1.24
2023-01-20T00:33:00.486Z,1.01
2023-01-20T00:35:33.267Z,1.46
2023-01-20T00:38:06.045Z,1.62
2023-01-20T00:40:38.892Z,1.61
2023-01-20T00:43:13.207Z,1.47
2023-01-20T00:45:47.399Z,1.04
2023-01-20T00:48:20.224Z,1.49
2023-01-20T00:50:53.078Z,1.56
2023-01-20T00:53:25.958Z,1.51
2023-01-20T00:55:59.038Z,1.18
2023-01-20T00:58:31.829Z,1.58
2023-01-20T01:01:06.571Z,1.47
2023-01-20T01:03:39.585Z,1.70
2023-01-20T01:06:14.963Z,1.76
2023-01-20T01:08:47.810Z,1.86
2023-01-20T01:11:20.660Z,1.79
2023-01-20T01:13:53.465Z,1.51
2023-01-20T01:16:27.654Z,1.70
2023-01-20T01:19:00.517Z,1.74
2023-01-20T01:21:33.294Z,1.77
2023-01-20T01:24:06.407Z,1.64
2023-01-20T01:26:39.220Z,1.50
2023-01-20T01:29:12.116Z,1.58
2023-01-20T01:31:46.368Z,1.44
2023-01-20T01:34:19.189Z,1.32
2023-01-20T01:36:52.088Z,1.38
2023-01-20T01:39:25.250Z,1.27
2023-01-20T01:41:58.085Z,1.07
2023-01-20T01:44:32.872Z,1.44
2023-01-20T01:47:07.360Z,1.47
2023-01-20T01:49:40.602Z,1.15
2023-01-20T01:52:13.404Z,0.95
2023-01-20T01:54:46.388Z,0.90
2023-01-20T01:57:19.198Z,1.00
2023-01-20T01:59:52.843Z,0.94
2023-01-20T02:02:27.467Z,1.17
2023-01-20T02:05:00.287Z,0.82
2023-01-20T02:07:34.525Z,1.27
2023-01-20T02:10:08.009Z,1.19
2023-01-20T02:12:42.364Z,1.23
2023-01-20T02:15:15.747Z,1.20
2023-01-20T02:17:59.780Z,0.92
2023-01-20T02:20:47.691Z,1.31
2023-01-20T02:23:38.761Z,1.58
2023-01-20T02:26:41.799Z,1.36
2023-01-20T02:29:53.205Z,1.32
2023-01-20T02:32:39.320Z,1.22
2023-01-20T02:35:17.325Z,1.07
2023-01-20T02:37:58.160Z,1.33
2023-01-20T02:40:35.856Z,1.25
2023-01-20T02:43:18.084Z,0.83
2023-01-20T02:45:58.172Z,1.18
2023-01-20T02:48:39.765Z,1.58
2023-01-20T02:51:17.204Z,1.50
2023-01-20T02:53:55.027Z,1.43
2023-01-20T02:56:30.579Z,1.47
2023-01-20T02:59:08.771Z,1.19
2023-01-20T03:01:47.653Z,1.36
2023-01-20T03:04:26.553Z,1.59
2023-01-20T03:07:01.008Z,1.34
2023-01-20T03:09:38.618Z,1.18
2023-01-20T03:12:22.312Z,1.57
2023-01-20T03:14:55.421Z,1.22
2023-01-20T03:17:28.360Z,1.33
2023-01-20T03:20:03.166Z,1.15
2023-01-20T03:22:36.001Z,1.39
2023-01-20T03:25:10.986Z,1.18
2023-01-20T03:27:43.938Z,1.24
2023-01-20T03:30:18.571Z,1.47
2023-01-20T03:32:54.428Z,1.68
2023-01-20T03:35:29.260Z,1.56
2023-01-20T03:38:02.171Z,1.27
2023-01-20T03:40:41.788Z,1.36
2023-01-20T03:43:21.659Z,1.58
2023-01-20T03:46:01.013Z,1.32
2023-01-20T03:48:42.993Z,1.30
2023-01-20T03:51:26.895Z,1.35
2023-01-20T03:54:03.373Z,0.95
2023-01-20T03:56:42.216Z,0.87
2023-01-20T03:59:17.864Z,0.85
2023-01-20T04:01:51.284Z,0.93
2023-01-20T04:04:24.551Z,1.06
2023-01-20T04:06:59.188Z,1.15
2023-01-20T04:09:37.052Z,1.02
2023-01-20T04:12:10.088Z,0.95
2023-01-20T04:14:42.896Z,0.91
2023-01-20T04:17:16.357Z,1.11
2023-01-20T04:19:49.707Z,0.97
2023-01-20T04:22:32.640Z,1.02
2023-01-20T04:25:14.361Z,0.83
2023-01-20T04:27:47.304Z,0.79
2023-01-20T04:30:20.277Z,1.07
2023-01-20T04:32:53.029Z,1.06
2023-01-20T04:35:25.825Z,0.98
2023-01-20T04:37:59.892Z,1.02
2023-01-20T04:40:32.671Z,0.78
2023-01-20T04:43:05.672Z,0.79
2023-01-20T04:45:38.649Z,1.03
2023-01-20T04:48:11.771Z,0.66
2023-01-20T04:50:45.008Z,0.72
2023-01-20T04:53:19.338Z,0.67
2023-01-20T04:55:52.138Z,0.86
2023-01-20T04:58:24.934Z,0.74
2023-01-20T05:00:57.638Z,0.73
2023-01-20T05:03:30.501Z,0.82
2023-01-20T05:06:03.385Z,0.90
2023-01-20T05:08:37.495Z,0.80
2023-01-20T05:11:10.324Z,0.81
2023-01-20T05:13:44.102Z,0.81
2023-01-20T05:16:21.884Z,0.66
2023-01-20T05:18:55.182Z,0.65
2023-01-20T05:21:28.285Z,0.68
2023-01-20T05:24:02.395Z,0.83
2023-01-20T05:26:35.477Z,0.66
2023-01-20T05:29:09.218Z,0.68
2023-01-20T05:31:43.608Z,0.99
2023-01-20T05:34:17.126Z,0.94
2023-01-20T05:36:52.551Z,0.67
2023-01-20T05:39:26.805Z,0.53
2023-01-20T05:41:59.500Z,0.76
2023-01-20T05:44:32.255Z,0.82
2023-01-20T05:47:05.213Z,0.85
2023-01-20T05:49:37.989Z,0.78
2023-01-20T05:52:11.440Z,0.79
2023-01-20T05:54:45.836Z,0.76
2023-01-20T05:57:18.650Z,0.75
2023-01-20T05:59:52.131Z,0.86
2023-01-20T06:02:24.903Z,1.09
2023-01-20T06:04:57.707Z,0.76
2023-01-20T06:07:31.582Z,1.03
2023-01-20T06:10:08.579Z,1.15
2023-01-20T06:12:41.303Z,0.84
2023-01-20T06:15:14.419Z,0.86
2023-01-20T06:17:47.526Z,0.98
2023-01-20T06:20:20.601Z,0.97
2023-01-20T06:22:56.090Z,1.02
2023-01-20T06:25:30.191Z,1.21
2023-01-20T06:28:03.057Z,1.14
2023-01-20T06:30:35.947Z,1.16
2023-01-20T06:33:10.766Z,0.76
2023-01-20T06:35:43.534Z,0.74
2023-01-20T06:38:16.238Z,0.86
2023-01-20T06:40:50.361Z,1.25
2023-01-20T06:43:23.234Z,1.10
2023-01-20T06:46:00.158Z,1.24
2023-01-20T06:48:33.314Z,1.06
2023-01-20T06:51:08.346Z,1.08
2023-01-20T06:53:41.397Z,0.79
2023-01-20T06:56:16.598Z,0.92
2023-01-20T06:58:49.363Z,1.45
2023-01-20T07:01:24.367Z,1.52
2023-01-20T07:03:57.617Z,1.55
2023-01-20T07:06:32.076Z,1.73
2023-01-20T07:09:06.450Z,1.71
2023-01-20T07:11:41.116Z,1.79
2023-01-20T07:14:13.833Z,1.80
2023-01-20T07:16:47.731Z,1.78
2023-01-20T07:19:20.498Z,1.78
2023-01-20T07:21:53.253Z,1.58
2023-01-20T07:24:26.012Z,1.69
2023-01-20T07:27:00.100Z,1.80
2023-01-20T07:29:32.843Z,1.68
2023-01-20T07:32:06.129Z,1.89
2023-01-20T07:34:38.831Z,1.77
2023-01-20T07:37:11.553Z,1.78
2023-01-20T07:39:44.214Z,1.64
2023-01-20T07:42:33.390Z,1.87
2023-01-20T07:45:07.213Z,1.53
2023-01-20T07:47:39.957Z,1.39
2023-01-20T07:50:12.696Z,1.37
2023-01-20T07:52:45.402Z,1.68
2023-01-20T07:55:18.073Z,1.78
2023-01-20T07:57:52.117Z,1.81
2023-01-20T08:00:24.897Z,1.73
2023-01-20T08:02:57.638Z,1.74
2023-01-20T08:05:30.360Z,1.40
2023-01-20T08:08:03.049Z,1.61
2023-01-20T08:10:35.820Z,1.52
2023-01-20T08:13:09.907Z,1.35
2023-01-20T08:15:42.679Z,1.28
2023-01-20T08:18:15.407Z,1.14
2023-01-20T08:20:48.076Z,1.15
2023-01-20T08:23:20.827Z,1.34
2023-01-20T08:25:59.892Z,1.51
2023-01-20T08:28:37.056Z,1.21
2023-01-20T08:31:12.841Z,1.63
2023-01-20T08:33:45.789Z,1.58
2023-01-20T08:36:20.801Z,1.51
2023-01-20T08:38:55.810Z,1.70
2023-01-20T08:41:31.353Z,1.52
2023-01-20T08:44:07.176Z,1.55
2023-01-20T08:46:41.804Z,1.80
2023-01-20T08:49:17.916Z,1.88
2023-01-20T08:51:51.250Z,1.89
2023-01-20T08:54:24.407Z,2.14
2023-01-20T08:56:57.154Z,2.36
2023-01-20T08:59:31.222Z,2.26
2023-01-20T09:02:04.044Z,1.98
2023-01-20T09:04:37.244Z,1.88
2023-01-20T09:07:12.215Z,2.05
2023-01-20T09:09:45.350Z,2.35
2023-01-20T09:12:18.125Z,1.66
2023-01-20T09:14:52.834Z,1.79
2023-01-20T09:17:25.610Z,1.82
2023-01-20T09:19:58.375Z,1.78
2023-01-20T09:22:31.048Z,1.42
2023-01-20T09:25:03.880Z,1.56
2023-01-20T09:27:37.107Z,1.32
2023-01-20T09:30:12.111Z,1.56
2023-01-20T09:32:44.806Z,1.55
2023-01-20T09:35:18.167Z,1.92
2023-01-20T09:38:09.020Z,1.90
2023-01-20T09:41:07.040Z,1.86
2023-01-20T09:43:55.292Z,2.20
2023-01-20T09:47:07.392Z,1.74
2023-01-20T09:50:07.951Z,1.70
2023-01-20T09:52:58.206Z,1.85
2023-01-20T09:55:39.721Z,2.07
2023-01-20T09:58:20.178Z,2.66
2023-01-20T10:00:54.675Z,2.57
2023-01-20T10:03:37.246Z,2.38
2023-01-20T10:06:14.375Z,2.84
2023-01-20T10:09:04.605Z,2.69
2023-01-20T10:11:42.140Z,2.82
2023-01-20T10:14:20.785Z,2.75
2023-01-20T10:17:00.009Z,3.31
2023-01-20T10:19:42.342Z,3.20
2023-01-20T10:22:22.082Z,2.90
2023-01-20T10:25:01.086Z,2.17
2023-01-20T10:27:36.862Z,2.02
2023-01-20T10:30:15.541Z,2.54
2023-01-20T10:32:53.506Z,2.87
2023-01-20T10:35:29.463Z,2.35
2023-01-20T10:38:03.760Z,2.62
2023-01-20T10:40:42.197Z,2.67
2023-01-20T10:43:17.532Z,3.11
2023-01-20T10:46:12.311Z,2.67
2023-01-20T10:49:06.498Z,2.73
2023-01-20T10:51:48.195Z,2.99
2023-01-20T10:54:30.019Z,3.38
2023-01-20T10:57:05.024Z,3.12
2023-01-20T10:59:43.297Z,3.37
2023-01-20T11:02:20.330Z,2.81
2023-01-20T11:04:58.771Z,2.99
2023-01-20T11:07:35.027Z,2.72
2023-01-20T11:10:15.998Z,2.79
2023-01-20T11:12:53.109Z,2.91
2023-01-20T11:15:30.029Z,3.08
2023-01-20T11:18:26.496Z,2.90
2023-01-20T11:21:02.287Z,3.19
2023-01-20T11:23:41.659Z,3.58
2023-01-20T11:26:21.860Z,3.25
2023-01-20T11:28:57.166Z,3.66
2023-01-20T11:31:39.289Z,3.54
2023-01-20T11:34:24.270Z,3.77
2023-01-20T11:37:18.209Z,3.33
2023-01-20T11:40:01.129Z,3.08
2023-01-20T11:42:45.921Z,2.99
2023-01-20T11:45:28.557Z,3.16
2023-01-20T11:48:05.472Z,3.01
2023-01-20T11:50:40.573Z,2.98
2023-01-20T11:53:24.726Z,3.42
2023-01-20T11:56:01.121Z,3.45
2023-01-20T11:58:51.418Z,2.97
2023-01-20T12:01:26.732Z,3.35
2023-01-20T12:04:24.092Z,3.57
2023-01-20T12:07:03.497Z,3.43
2023-01-20T12:09:38.821Z,3.89
2023-01-20T12:12:21.791Z,3.59
2023-01-20T12:15:01.699Z,3.77
2023-01-20T12:17:43.155Z,3.49
2023-01-20T12:20:23.651Z,3.36
2023-01-20T12:23:08.513Z,3.36
2023-01-20T12:25:49.932Z,3.18
2023-01-20T12:28:30.052Z,3.44
2023-01-20T12:31:04.488Z,3.12
2023-01-20T12:33:41.227Z,2.71
2023-01-20T12:36:29.886Z,2.73
2023-01-20T12:39:38.207Z,2.91
2023-01-20T12:42:36.028Z,3.13
2023-01-20T12:45:23.926Z,3.66
2023-01-20T12:48:12.138Z,2.99
2023-01-20T12:50:58.474Z,3.22
2023-01-20T12:53:46.429Z,3.73
2023-01-20T12:56:30.282Z,3.44
2023-01-20T12:59:16.325Z,3.96
2023-01-20T13:02:05.784Z,4.17
2023-01-20T13:05:15.407Z,4.48
2023-01-20T13:08:02.623Z,4.22
2023-01-20T13:10:57.670Z,4.01
2023-01-20T13:13:55.874Z,3.57
2023-01-20T13:16:36.592Z,3.66
2023-01-20T13:19:15.985Z,3.95
2023-01-20T13:22:06.562Z,4.35
2023-01-20T13:24:45.116Z,3.65
2023-01-20T13:27:22.928Z,4.15
2023-01-20T13:29:57.769Z,3.45
2023-01-20T13:32:33.572Z,4.18
2023-01-20T13:35:45.926Z,3.27
2023-01-20T13:38:23.885Z,3.48
2023-01-20T13:40:58.686Z,3.97
2023-01-20T13:43:50.331Z,3.93
2023-01-20T13:46:48.893Z,3.91
2023-01-20T13:49:25.010Z,3.81
2023-01-20T13:51:59.055Z,3.50
2023-01-20T13:54:46.012Z,4.22
2023-01-20T13:57:45.827Z,4.04
2023-01-20T14:00:20.764Z,4.08
2023-01-20T14:02:54.010Z,3.87
2023-01-20T14:05:34.275Z,3.61
2023-01-20T14:08:14.760Z,3.49
2023-01-20T14:10:47.728Z,3.24
2023-01-20T14:13:22.832Z,3.34
2023-01-20T14:15:57.205Z,3.47
2023-01-20T14:18:30.104Z,3.72
2023-01-20T14:21:06.035Z,3.56
2023-01-20T14:23:40.502Z,3.51
2023-01-20T14:26:14.930Z,3.95
2023-01-20T14:28:50.182Z,3.61
2023-01-20T14:31:32.511Z,3.90
2023-01-20T14:34:24.490Z,3.95
2023-01-20T14:36:58.706Z,3.80
2023-01-20T14:39:33.437Z,3.30
2023-01-20T14:42:19.203Z,3.01
2023-01-20T14:44:53.645Z,2.87
2023-01-20T14:47:27.958Z,3.02
2023-01-20T14:50:02.573Z,3.13
2023-01-20T14:52:35.399Z,2.59
2023-01-20T14:55:31.648Z,2.94
2023-01-20T14:58:09.220Z,2.94
2023-01-20T15:00:44.634Z,2.71
2023-01-20T15:03:21.691Z,2.45
2023-01-20T15:05:58.217Z,2.84
2023-01-20T15:08:56.897Z,2.57
2023-01-20T15:11:38.645Z,2.35
2023-01-20T15:14:13.510Z,2.27
2023-01-20T15:16:51.881Z,2.80
2023-01-20T15:19:37.045Z,2.15
2023-01-20T15:22:19.434Z,1.80
2023-01-20T15:24:52.866Z,2.36
2023-01-20T15:27:37.992Z,2.18
2023-01-20T15:30:18.807Z,2.38
2023-01-20T15:32:52.342Z,2.45
2023-01-20T15:35:27.041Z,2.04
2023-01-20T15:37:59.852Z,2.03
2023-01-20T15:40:32.885Z,2.16
2023-01-20T15:43:15.396Z,2.12
2023-01-20T15:45:48.090Z,1.14
2023-01-20T15:48:22.321Z,1.46
2023-01-20T15:50:55.093Z,1.16
2023-01-20T15:53:27.842Z,1.73
2023-01-20T15:56:01.039Z,1.73
2023-01-20T15:58:35.830Z,1.04
2023-01-20T16:01:13.753Z,1.50
2023-01-20T16:03:46.778Z,0.82
2023-01-20T16:06:21.138Z,0.97
2023-01-20T16:08:53.970Z,0.82
2023-01-20T16:11:26.864Z,0.56
2023-01-20T16:14:00.903Z,0.12
2023-01-20T16:16:33.692Z,-0.18
2023-01-20T16:19:06.771Z,0.48
2023-01-20T16:21:39.747Z,0.83
2023-01-20T16:24:12.859Z,0.58
2023-01-20T16:26:48.030Z,0.51
2023-01-20T16:29:22.062Z,0.85
2023-01-20T16:31:54.885Z,0.14
2023-01-20T16:34:27.611Z,-0.22
2023-01-20T16:37:00.309Z,0.25
2023-01-20T16:39:33.702Z,0.75
2023-01-20T16:42:06.675Z,0.58
2023-01-20T16:44:40.751Z,0.58
2023-01-20T16:47:13.482Z,0.30
2023-01-20T16:49:46.134Z,0.09
2023-01-20T16:52:22.038Z,0.41
2023-01-20T16:54:54.813Z,0.26
2023-01-20T16:57:27.818Z,-0.55
2023-01-20T17:00:01.917Z,-0.22
2023-01-20T17:02:35.076Z,-0.86
2023-01-20T17:05:08.628Z,-0.73
2023-01-20T17:07:41.407Z,-0.63
2023-01-20T17:10:14.717Z,-0.94
2023-01-20T17:12:48.970Z,-1.16
2023-01-20T17:15:24.496Z,-1.25
2023-01-20T17:18:00.232Z,-0.72
2023-01-20T17:20:32.980Z,-0.49
2023-01-20T17:23:05.699Z,-0.06
2023-01-20T17:25:38.438Z,0.04
2023-01-20T17:28:11.195Z,0.05
2023-01-20T17:30:45.388Z,-0.19
2023-01-20T17:33:18.238Z,-0.39
2023-01-20T17:36:01.815Z,-1.17
2023-01-20T17:38:39.772Z,-0.41
2023-01-20T17:41:13.295Z,-1.15
2023-01-20T17:43:49.941Z,-0.48
2023-01-20T17:46:27.679Z,-0.58
2023-01-20T17:49:01.707Z,-1.64
2023-01-20T17:51:35.023Z,-1.68
2023-01-20T17:54:07.739Z,-1.74
2023-01-20T17:56:40.521Z,-1.01
2023-01-20T17:59:13.208Z,-1.14
2023-01-20T18:01:48.237Z,-1.78
2023-01-20T18:04:20.986Z,-1.22
2023-01-20T18:06:53.731Z,-1.32
2023-01-20T18:09:26.476Z,-1.91
2023-01-20T18:12:00.238Z,-2.07
2023-01-20T18:14:33.135Z,-1.57
2023-01-20T18:17:07.308Z,-2.00
2023-01-20T18:19:40.088Z,-1.39
2023-01-20T18:22:14.278Z,-0.97
2023-01-20T18:24:47.168Z,-0.88
2023-01-20T18:27:19.876Z,-1.13
2023-01-20T18:29:54.330Z,-1.89
2023-01-20T18:32:28.454Z,-1.94
2023-01-20T18:35:01.189Z,-1.62
2023-01-20T18:37:33.982Z,-1.87
2023-01-20T18:40:08.217Z,-2.28
2023-01-20T18:42:42.765Z,-2.61
2023-01-20T18:45:15.500Z,-2.80
2023-01-20T18:47:50.837Z,-3.01
2023-01-20T18:50:27.025Z,-3.04
2023-01-20T18:53:05.011Z,-2.68
2023-01-20T18:55:37.851Z,-2.65
2023-01-20T18:58:10.532Z,-3.06
2023-01-20T19:00:43.572Z,-3.11
2023-01-20T19:03:17.676Z,-2.36
2023-01-20T19:05:50.472Z,-2.72
2023-01-20T19:08:23.248Z,-2.85
2023-01-20T19:11:00.620Z,-3.17
2023-01-20T19:13:33.715Z,-3.03
2023-01-20T19:16:10.115Z,-3.01
2023-01-20T19:18:46.045Z,-2.93
2023-01-20T19:21:19.140Z,-3.32
2023-01-20T19:23:52.847Z,-2.77
2023-01-20T19:26:27.451Z,-2.57
2023-01-20T19:29:02.627Z,-2.85
2023-01-20T19:31:37.927Z,-3.07
2023-01-20T19:34:12.773Z,-2.57
2023-01-20T19:36:45.460Z,-2.82
2023-01-20T19:39:18.364Z,-2.86
2023-01-20T19:41:51.604Z,-2.96
2023-01-20T19:44:25.335Z,-3.07
2023-01-20T19:47:04.075Z,-3.01
2023-01-20T19:49:38.351Z,-2.79
2023-01-20T19:52:11.159Z,-2.68
2023-01-20T19:54:43.949Z,-2.61
2023-01-20T19:57:16.701Z,-2.83
2023-01-20T19:59:51.105Z,-2.68
2023-01-20T20:02:23.916Z,-2.35
2023-01-20T20:04:58.076Z,-2.33
2023-01-20T20:07:30.830Z,-2.53
2023-01-20T20:10:03.645Z,-3.20
2023-01-20T20:12:36.406Z,-2.73
2023-01-20T20:15:09.924Z,-2.46
2023-01-20T20:17:42.988Z,-2.45
2023-01-20T20:20:18.270Z,-2.47
2023-01-20T20:22:51.286Z,-2.70
2023-01-20T20:25:24.045Z,-2.32
2023-01-20T20:27:57.705Z,-2.88
2023-01-20T20:30:30.593Z,-3.60
2023-01-20T20:33:03.351Z,-3.36
2023-01-20T20:35:37.908Z,-3.13
2023-01-20T20:38:10.707Z,-2.74
2023-01-20T20:40:43.489Z,-2.89
2023-01-20T20:43:16.280Z,-3.02
2023-01-20T20:45:49.047Z,-2.74
2023-01-20T20:48:21.869Z,-2.69
2023-01-20T20:50:55.986Z,-2.84
2023-01-20T20:53:28.753Z,-2.64
2023-01-20T20:56:04.026Z,-2.87
2023-01-20T20:58:43.323Z,-3.21
2023-01-20T21:01:21.678Z,-3.24
2023-01-20T21:03:57.371Z,-3.03
2023-01-20T21:06:32.421Z,-2.91
2023-01-20T21:09:05.395Z,-3.80
2023-01-20T21:11:38.711Z,-4.08
2023-01-20T21:14:12.102Z,-4.06
2023-01-20T21:16:44.871Z,-2.90
2023-01-20T21:19:17.664Z,-2.72
2023-01-20T21:21:51.981Z,-2.64
2023-01-20T21:24:28.971Z,-2.36
2023-01-20T21:27:02.146Z,-2.54
2023-01-20T21:29:34.838Z,-2.53
2023-01-20T21:32:07.622Z,-2.74
2023-01-20T21:34:40.322Z,-2.71
2023-01-20T21:37:14.419Z,-2.57
2023-01-20T21:39:47.104Z,-2.72
2023-01-20T21:42:19.803Z,-2.24
2023-01-20T21:44:51.628Z,-2.06
2023-01-20T21:47:24.511Z,-2.19
2023-01-20T21:50:29.555Z,-2.11
2023-01-20T21:53:03.926Z,-2.01
2023-01-20T21:55:37.956Z,-2.44
2023-01-20T21:58:10.748Z,-2.27
2023-01-20T22:00:43.701Z,-1.80
2023-01-20T22:03:16.453Z,-2.15
2023-01-20T22:05:49.312Z,-2.56
2023-01-20T22:08:23.403Z,-2.29
2023-01-20T22:10:56.726Z,-2.41
2023-01-20T22:13:29.917Z,-2.56
2023-01-20T22:16:03.137Z,-2.38
2023-01-20T22:18:35.983Z,-2.07
2023-01-20T22:21:09.229Z,-2.94
2023-01-20T22:23:43.976Z,-2.38
2023-01-20T22:26:16.841Z,-2.06
2023-01-20T22:28:49.712Z,-2.10
2023-01-20T22:31:23.998Z,-1.87
2023-01-20T22:33:59.700Z,-2.03
2023-01-20T22:36:32.559Z,-2.31
2023-01-20T22:39:07.507Z,-1.94
2023-01-20T22:41:40.816Z,-1.95
2023-01-20T22:44:13.674Z,-2.00
2023-01-20T22:46:46.423Z,-2.48
2023-01-20T22:49:19.436Z,-2.54
2023-01-20T22:51:54.882Z,-1.94
2023-01-20T22:54:28.993Z,-2.50
2023-01-20T22:57:01.677Z,-2.12
2023-01-20T22:59:35.690Z,-2.40
2023-01-20T23:02:08.661Z,-2.74
2023-01-20T23:04:41.965Z,-2.30
2023-01-20T23:07:15.100Z,-2.04
2023-01-20T23:09:49.995Z,-2.66
2023-01-20T23:12:22.709Z,-2.25
2023-01-20T23:15:01.853Z,-2.45
2023-01-20T23:17:34.830Z,-2.44
2023-01-20T23:20:08.819Z,-2.50
2023-01-20T23:22:41.504Z,-2.29
2023-01-20T23:25:15.921Z,-2.48
2023-01-20T23:27:48.597Z,-2.80
2023-01-20T23:30:21.550Z,-2.48
2023-01-20T23:32:54.663Z,-2.54
2023-01-20T23:35:27.580Z,-2.51
2023-01-20T23:38:00.320Z,-2.62
2023-01-20T23:40:35.699Z,-2.34
2023-01-20T23:43:08.955Z,-2.29
2023-01-20T23:45:41.803Z,-1.90
2023-01-20T23:48:15.127Z,-2.07
2023-01-20T23:50:47.864Z,-1.79
2023-01-20T23:53:20.716Z,-2.58
2023-01-20T23:55:59.901Z,-2.10
2023-01-20T23:58:33.460Z,-2.12
